Time;durP1;ratioP1;P1;durP2;ratioP2;P2;SDS_P1;SDS_P2;PMS_P1;PMS_P2;Temp;Humidity;BMP_temperature;BMP_pressure;BME280_temperature;BME280_humidity;BME280_pressure;Samples;Min_cycle;Max_cycle;Signal;HPM_P1;HPM_P2
2023/10/03 00:00:57;;;;;;;;;;;;;;;18.53;53.75;101232.16;5430343;32;34568;-75
2023/10/03 00:04:00;;;;;;;;;;;;;;;19.26;51.33;101219.78;5432259;32;35333;-75
2023/10/03 00:07:02;;;;;;;;;;;;;;;19.12;51.48;101225.94;5431021;32;34068;-78
2023/10/03 00:10:05;;;;;;;;;;;;;;;18.73;52.53;101218.56;5430312;32;35046;-77
2023/10/03 00:13:11;;;;;;;;;;;;;;;18.48;53.59;101220.91;5427577;32;35918;-77
2023/10/03 00:16:13;;;;;;;;;;;;;;;17.43;56.92;101217.09;5414270;32;34149;-76
2023/10/03 00:19:15;;;;;;;;;;;;;;;17.33;57.50;101230.91;5433090;32;34026;-75
2023/10/03 00:22:19;;;;;;;;;;;;;;;17.40;57.23;101225.25;5429786;32;34096;-78
2023/10/03 00:25:23;;;;;;;;;;;;;;;17.51;56.98;101220.19;5431560;32;34355;-78
2023/10/03 00:28:33;;;;;;;;;;;;;;;17.77;55.97;101216.97;5432175;32;34125;-78
2023/10/03 00:31:35;;;;;;;;;;;;;;;17.86;55.81;101211.16;5429077;32;33977;-76
2023/10/03 00:34:40;;;;;;;;;;;;;;;18.73;53.13;101213.22;5432583;32;34186;-76
2023/10/03 00:37:46;;;;;;;;;;;;;;;18.88;52.42;101211.47;5420229;32;34171;-76
2023/10/03 00:40:49;;;;;;;;;;;;;;;18.57;53.00;101205.28;5409739;32;34186;-76
2023/10/03 00:43:51;;;;;;;;;;;;;;;19.02;51.82;101197.31;5430372;32;35816;-76
2023/10/03 00:46:53;;;;;;;;;;;;;;;19.16;51.09;101190.16;5430588;32;34191;-78
2023/10/03 00:49:56;;;;;;;;;;;;;;;18.96;51.70;101187.03;5427874;32;33969;-78
2023/10/03 00:52:59;;;;;;;;;;;;;;;18.97;51.59;101186.91;5428386;32;34852;-77
2023/10/03 00:56:09;;;;;;;;;;;;;;;18.87;51.66;101188.41;5428957;32;35616;-77
2023/10/03 00:59:53;;;;;;;;;;;;;;;18.90;51.53;101180.25;5362837;32;34562;-78
2023/10/03 01:03:31;;;;;;;;;;;;;;;19.03;50.76;101180.34;5337201;33;34854;-78
2023/10/03 01:06:35;;;;;;;;;;;;;;;18.57;52.06;101183.13;5340027;33;32880;-77
2023/10/03 01:09:37;;;;;;;;;;;;;;;18.22;53.25;101183.38;5336183;33;34057;-76
2023/10/03 01:12:39;;;;;;;;;;;;;;;18.60;51.91;101181.12;5324176;33;34087;-77
2023/10/03 01:15:42;;;;;;;;;;;;;;;18.58;51.89;101168.87;5337581;33;34193;-77
2023/10/03 01:18:45;;;;;;;;;;;;;;;18.58;52.20;101180.38;5337110;33;34410;-77
2023/10/03 01:22:04;;;;;;;;;;;;;;;18.26;53.08;101173.44;5340395;33;34485;-75
2023/10/03 01:25:17;;;;;;;;;;;;;;;18.59;52.08;101168.75;5336274;33;35251;-77
2023/10/03 01:28:20;;;;;;;;;;;;;;;18.07;53.67;101178.97;5343036;33;34163;-78
2023/10/03 01:31:23;;;;;;;;;;;;;;;17.96;54.06;101170.75;5342201;33;33683;-76
2023/10/03 01:34:25;;;;;;;;;;;;;;;18.40;52.50;101165.50;5336450;33;34130;-77
2023/10/03 01:37:29;;;;;;;;;;;;;;;18.60;51.66;101167.81;5337704;33;35882;-77
2023/10/03 01:40:31;;;;;;;;;;;;;;;18.34;52.20;101164.03;5337983;33;33989;-77
2023/10/03 01:43:34;;;;;;;;;;;;;;;18.43;51.75;101161.81;5336171;33;34097;-77
2023/10/03 01:46:38;;;;;;;;;;;;;;;18.30;51.97;101165.19;5339222;33;34247;-77
2023/10/03 01:49:42;;;;;;;;;;;;;;;17.35;54.81;101161.72;5329704;33;35216;-77
2023/10/03 01:52:46;;;;;;;;;;;;;;;18.18;52.54;101159.72;5325843;33;34749;-77
2023/10/03 01:55:48;;;;;;;;;;;;;;;17.58;54.19;101163.09;5336680;33;34512;-77
2023/10/03 01:58:51;;;;;;;;;;;;;;;18.02;52.89;101152.63;5336888;33;34397;-78
2023/10/03 02:01:53;;;;;;;;;;;;;;;16.76;56.52;101148.09;5342497;33;34236;-77
2023/10/03 02:04:56;;;;;;;;;;;;;;;15.97;59.33;101158.28;5339471;33;35604;-77
2023/10/03 02:08:01;;;;;;;;;;;;;;;17.11;55.85;101153.28;5372818;32;35489;-77
2023/10/03 02:11:05;;;;;;;;;;;;;;;17.61;54.23;101147.00;5431400;32;34141;-77
2023/10/03 02:14:08;;;;;;;;;;;;;;;17.37;54.69;101151.00;5430105;32;34316;-77
2023/10/03 02:17:11;;;;;;;;;;;;;;;17.84;53.15;101149.25;5426492;32;33941;-78
2023/10/03 02:20:19;;;;;;;;;;;;;;;18.26;52.06;101146.81;5416951;32;34968;-77
2023/10/03 02:23:25;;;;;;;;;;;;;;;18.27;51.81;101146.72;5426510;32;33104;-76
2023/10/03 02:26:30;;;;;;;;;;;;;;;18.11;52.05;101149.44;5428777;32;33680;-77
2023/10/03 02:29:33;;;;;;;;;;;;;;;18.31;51.51;101140.28;5419066;32;34101;-78
2023/10/03 02:32:35;;;;;;;;;;;;;;;18.09;51.86;101139.81;5430241;32;35638;-77
2023/10/03 02:35:42;;;;;;;;;;;;;;;18.02;52.28;101138.47;5430739;32;34834;-77
2023/10/03 02:38:44;;;;;;;;;;;;;;;17.94;52.41;101135.41;5429748;32;34315;-77
2023/10/03 02:41:47;;;;;;;;;;;;;;;17.81;52.67;101125.47;5431522;32;35183;-76
2023/10/03 02:44:50;;;;;;;;;;;;;;;17.90;52.50;101133.84;5429476;32;34289;-77
2023/10/03 02:47:55;;;;;;;;;;;;;;;17.03;54.83;101132.47;5431286;32;35438;-76
2023/10/03 02:50:58;;;;;;;;;;;;;;;16.78;56.30;101130.28;5428838;32;35595;-76
2023/10/03 02:54:00;;;;;;;;;;;;;;;16.96;55.95;101130.22;5428337;32;35463;-77
2023/10/03 02:57:04;;;;;;;;;;;;;;;17.06;55.25;101128.78;5430516;32;34141;-77
2023/10/03 03:00:12;;;;;;;;;;;;;;;16.96;55.41;101128.44;5429080;32;34266;-76
2023/10/03 03:03:14;;;;;;;;;;;;;;;17.79;53.18;101124.72;5426797;32;34276;-75
2023/10/03 03:06:18;;;;;;;;;;;;;;;17.96;52.42;101122.88;5413942;32;34286;-76
2023/10/03 03:09:23;;;;;;;;;;;;;;;17.32;53.92;101130.00;5430813;32;34222;-76
2023/10/03 03:12:26;;;;;;;;;;;;;;;17.24;54.83;101117.16;5428956;32;34338;-76
2023/10/03 03:15:31;;;;;;;;;;;;;;;17.83;52.48;101112.94;5429224;32;35317;-76
2023/10/03 03:18:39;;;;;;;;;;;;;;;17.62;52.91;101114.16;5432419;32;35175;-75
2023/10/03 03:21:42;;;;;;;;;;;;;;;17.85;52.18;101116.38;5428642;32;35752;-75
2023/10/03 03:24:51;;;;;;;;;;;;;;;17.86;52.09;101106.59;5417374;32;35239;-75
2023/10/03 03:27:57;;;;;;;;;;;;;;;17.98;51.67;101115.69;5430238;32;34144;-76
2023/10/03 03:30:59;;;;;;;;;;;;;;;17.85;51.77;101108.41;5431187;32;33888;-76
2023/10/03 03:34:03;;;;;;;;;;;;;;;17.78;51.94;101106.19;5412972;32;36339;-76
2023/10/03 03:37:37;;;;;;;;;;;;;;;17.73;52.02;101098.47;5407359;32;33809;-77
2023/10/03 03:40:34;;;;;;;;;;;;;;;17.75;52.01;101107.22;5411841;32;34735;-77
2023/10/03 03:43:36;;;;;;;;;;;;;;;17.58;52.48;101101.97;5412364;32;35370;-76
2023/10/03 03:46:40;;;;;;;;;;;;;;;17.19;53.81;101107.72;5431805;32;35319;-76
2023/10/03 03:49:42;;;;;;;;;;;;;;;17.33;53.39;101099.88;5414425;32;34837;-76
2023/10/03 03:52:45;;;;;;;;;;;;;;;17.08;53.95;101092.38;5429758;32;34185;-78
2023/10/03 03:55:49;;;;;;;;;;;;;;;16.48;56.08;101102.66;5428553;32;34079;-76
2023/10/03 03:58:51;;;;;;;;;;;;;;;17.11;54.24;101092.22;5430525;32;34298;-76
2023/10/03 04:01:55;;;;;;;;;;;;;;;16.68;55.10;101090.97;5427581;32;35380;-76
2023/10/03 04:04:57;;;;;;;;;;;;;;;17.53;52.70;101093.41;5430156;32;32624;-76
2023/10/03 04:07:59;;;;;;;;;;;;;;;17.43;52.63;101090.41;5415824;32;34149;-78
2023/10/03 04:11:02;;;;;;;;;;;;;;;16.91;53.96;101085.34;5431818;32;34884;-78
2023/10/03 04:14:05;;;;;;;;;;;;;;;16.47;55.47;101091.19;5431132;32;34108;-78
2023/10/03 04:17:11;;;;;;;;;;;;;;;16.15;57.33;101086.69;5433019;32;34696;-78
2023/10/03 04:23:23;;;;;;;;;;;;;;;16.41;56.67;101088.00;5432950;32;34623;-77
2023/10/03 04:26:26;;;;;;;;;;;;;;;16.73;55.36;101087.19;5430420;32;34117;-76
2023/10/03 04:29:33;;;;;;;;;;;;;;;17.49;52.98;101091.88;5416084;32;35321;-76
2023/10/03 04:32:35;;;;;;;;;;;;;;;16.81;55.07;101093.88;5432905;32;34614;-76
2023/10/03 04:35:38;;;;;;;;;;;;;;;17.46;53.25;101097.38;5430294;32;34224;-76
2023/10/03 04:38:40;;;;;;;;;;;;;;;17.42;52.92;101095.81;5420306;32;33801;-77
2023/10/03 04:41:44;;;;;;;;;;;;;;;17.32;53.26;101099.00;5430232;32;37245;-77
2023/10/03 04:44:46;;;;;;;;;;;;;;;16.68;55.38;101099.81;5432001;32;35354;-76
2023/10/03 04:47:49;;;;;;;;;;;;;;;17.17;54.20;101102.50;5430756;32;34090;-77
2023/10/03 04:50:51;;;;;;;;;;;;;;;17.08;54.76;101088.88;5408984;32;34803;-76
2023/10/03 04:53:53;;;;;;;;;;;;;;;16.04;58.72;101095.22;5431314;32;34249;-76
2023/10/03 04:57:00;;;;;;;;;;;;;;;16.15;59.19;101092.84;5429983;32;34186;-77
2023/10/03 05:00:04;;;;;;;;;;;;;;;16.61;57.86;101084.28;5432044;32;35033;-77
2023/10/03 05:03:09;;;;;;;;;;;;;;;16.98;56.71;101089.38;5430282;32;33799;-76
2023/10/03 05:06:11;;;;;;;;;;;;;;;16.07;59.75;101102.13;5431410;32;35345;-77
2023/10/03 05:09:13;;;;;;;;;;;;;;;16.03;59.95;101092.59;5431255;32;35373;-78
2023/10/03 05:12:16;;;;;;;;;;;;;;;16.26;59.35;101105.56;5414640;32;34151;-78
2023/10/03 05:15:18;;;;;;;;;;;;;;;16.49;58.57;101096.44;5431424;32;34631;-76
2023/10/03 05:18:20;;;;;;;;;;;;;;;16.29;59.33;101089.47;5430890;32;34407;-76
2023/10/03 05:21:23;;;;;;;;;;;;;;;16.27;58.98;101096.66;5431922;32;34406;-78
2023/10/03 05:24:25;;;;;;;;;;;;;;;16.45;58.89;101103.69;5430480;32;35313;-77
2023/10/03 05:27:32;;;;;;;;;;;;;;;16.21;59.20;101103.12;5430936;32;34521;-77
2023/10/03 05:30:38;;;;;;;;;;;;;;;15.80;60.85;101096.44;5431118;32;35844;-79
2023/10/03 05:33:42;;;;;;;;;;;;;;;16.87;58.54;101098.84;5428965;32;35390;-76
2023/10/03 05:36:44;;;;;;;;;;;;;;;17.23;57.36;101094.19;5432105;32;34396;-77
2023/10/03 05:39:47;;;;;;;;;;;;;;;17.67;55.16;101092.62;5416881;32;34121;-77
2023/10/03 05:42:50;;;;;;;;;;;;;;;18.07;52.08;101100.03;5431058;32;34259;-79
2023/10/03 05:45:52;;;;;;;;;;;;;;;18.92;50.03;101091.31;5428920;32;34230;-76
2023/10/03 05:48:54;;;;;;;;;;;;;;;21.23;45.19;101083.69;5415135;32;34214;-79
2023/10/03 05:51:56;;;;;;;;;;;;;;;21.54;42.95;101095.72;5429664;32;35303;-78
2023/10/03 05:54:59;;;;;;;;;;;;;;;21.78;40.85;101090.38;5425994;32;34592;-79
2023/10/03 05:58:06;;;;;;;;;;;;;;;22.31;39.73;101089.97;5407733;32;32997;-79
2023/10/03 06:01:09;;;;;;;;;;;;;;;22.38;39.40;101096.56;5423924;32;34463;-80
2023/10/03 06:04:11;;;;;;;;;;;;;;;21.84;40.57;101099.75;5426524;32;33772;-80
2023/10/03 06:07:13;;;;;;;;;;;;;;;22.37;39.22;101102.88;5421207;32;33870;-82
2023/10/03 06:10:16;;;;;;;;;;;;;;;21.24;41.37;101106.78;5419028;32;34257;-81
2023/10/03 06:13:19;;;;;;;;;;;;;;;21.94;39.81;101106.12;5422737;32;35343;-81
2023/10/03 06:16:28;;;;;;;;;;;;;;;23.11;37.83;101098.81;5427119;32;34345;-81
2023/10/03 06:19:30;;;;;;;;;;;;;;;21.27;41.08;101108.41;5423776;32;34089;-76
2023/10/03 06:22:35;;;;;;;;;;;;;;;21.56;40.42;101111.66;5421509;32;34167;-77
2023/10/03 06:25:39;;;;;;;;;;;;;;;22.24;39.22;101108.31;5424198;32;34105;-81
2023/10/03 06:28:42;;;;;;;;;;;;;;;22.28;39.10;101104.44;5419464;32;34235;-80
2023/10/03 06:31:45;;;;;;;;;;;;;;;22.71;37.88;101104.63;5426301;32;34507;-78
2023/10/03 06:34:47;;;;;;;;;;;;;;;21.76;40.04;101110.16;5422725;32;34136;-77
2023/10/03 06:37:50;;;;;;;;;;;;;;;22.06;39.92;101105.19;5418237;32;34728;-78
2023/10/03 06:40:52;;;;;;;;;;;;;;;22.30;39.11;101104.34;5422253;32;34271;-81
2023/10/03 06:43:54;;;;;;;;;;;;;;;23.14;37.36;101097.72;5423719;32;34702;-76
2023/10/03 06:47:00;;;;;;;;;;;;;;;24.82;34.64;101087.09;5420963;32;33856;-79
2023/10/03 06:50:05;;;;;;;;;;;;;;;22.95;37.67;101095.66;5407981;32;35371;-79
2023/10/03 06:53:08;;;;;;;;;;;;;;;23.83;35.63;101092.06;5424766;32;34552;-78
2023/10/03 06:56:10;;;;;;;;;;;;;;;24.57;34.65;101092.91;5400315;32;34057;-79
2023/10/03 06:59:12;;;;;;;;;;;;;;;25.82;32.99;101094.31;5411023;32;383958;-80
2023/10/03 07:02:21;;;;;;;;;;;;;;;22.78;38.26;101098.78;5422810;32;35241;-78
2023/10/03 07:05:40;;;;;;;;;;;;;;;26.03;32.29;101096.88;5422977;32;34739;-78
2023/10/03 07:08:43;;;;;;;;;;;;;;;23.34;37.00;101102.31;5407634;32;33850;-77
2023/10/03 07:11:52;;;;;;;;;;;;;;;24.46;35.25;101107.25;5420465;32;35355;-79
2023/10/03 07:14:56;;;;;;;;;;;;;;;24.98;34.20;101091.09;5391556;32;33869;-78
2023/10/03 07:18:03;;;;;;;;;;;;;;;25.13;33.59;101092.47;5394323;32;34613;-79
2023/10/03 07:21:07;;;;;;;;;;;;;;;26.87;31.24;101094.31;5402768;32;34092;-77
2023/10/03 07:24:13;;;;;;;;;;;;;;;24.97;34.07;101094.78;5409550;32;34517;-80
2023/10/03 07:27:20;;;;;;;;;;;;;;;25.20;33.86;101099.00;5398941;32;34144;-82
2023/10/03 07:30:26;;;;;;;;;;;;;;;26.03;32.86;101096.88;5405395;32;33999;-81
2023/10/03 07:33:31;;;;;;;;;;;;;;;26.16;32.58;101103.66;5404263;32;33994;-79
2023/10/03 07:36:33;;;;;;;;;;;;;;;26.49;31.85;101103.38;5399249;32;34141;-80
2023/10/03 07:39:38;;;;;;;;;;;;;;;26.44;32.25;101101.09;5403377;32;35442;-80
2023/10/03 07:42:40;;;;;;;;;;;;;;;26.86;31.35;101096.16;5395768;32;35484;-79
2023/10/03 07:45:43;;;;;;;;;;;;;;;24.18;36.48;101102.53;5406092;32;35484;-83
2023/10/03 07:48:48;;;;;;;;;;;;;;;22.30;40.63;101107.00;5405326;32;34420;-79
2023/10/03 07:51:54;;;;;;;;;;;;;;;22.70;39.96;101104.75;5400438;32;35385;-80
2023/10/03 07:54:57;;;;;;;;;;;;;;;21.78;41.78;101117.12;5409441;32;34629;-77
2023/10/03 07:57:59;;;;;;;;;;;;;;;23.04;39.29;101104.78;5405325;32;33770;-82
2023/10/03 08:01:04;;;;;;;;;;;;;;;23.15;39.07;101111.00;5409855;32;34252;-85
2023/10/03 08:04:12;;;;;;;;;;;;;;;21.68;42.10;101107.22;5407766;32;34266;-83
2023/10/03 08:07:22;;;;;;;;;;;;;;;20.79;44.84;101117.12;5401990;32;34170;-86
2023/10/03 08:10:24;;;;;;;;;;;;;;;21.51;43.62;101113.78;5410092;32;34723;-83
2023/10/03 08:13:31;;;;;;;;;;;;;;;21.48;43.51;101114.87;5411568;32;34295;-85
2023/10/03 08:16:34;;;;;;;;;;;;;;;21.13;44.43;101105.88;5390686;32;36500;-83
2023/10/03 08:19:40;;;;;;;;;;;;;;;21.18;44.13;101104.56;5386413;32;34962;-81
2023/10/03 08:22:42;;;;;;;;;;;;;;;21.77;42.93;101109.22;5392426;32;35360;-80
2023/10/03 08:26:01;;;;;;;;;;;;;;;21.63;43.76;101113.75;5399551;32;33392;-80
2023/10/03 08:29:06;;;;;;;;;;;;;;;22.70;41.40;101105.59;5406709;32;34122;-78
2023/10/03 08:32:09;;;;;;;;;;;;;;;21.60;44.62;101105.97;5393618;32;35775;-78
2023/10/03 08:35:12;;;;;;;;;;;;;;;21.19;45.66;101092.03;5407210;32;32396;-81
2023/10/03 08:38:14;;;;;;;;;;;;;;;21.53;45.16;101099.38;5410015;32;34072;-78
2023/10/03 08:41:17;;;;;;;;;;;;;;;21.85;44.78;101088.09;5396011;32;32669;-83
2023/10/03 08:44:23;;;;;;;;;;;;;;;21.78;44.95;101089.53;5409149;32;36027;-82
2023/10/03 08:47:33;;;;;;;;;;;;;;;21.99;44.20;101087.91;5414122;32;34978;-81
2023/10/03 08:50:39;;;;;;;;;;;;;;;22.08;44.29;101080.97;5397201;32;34079;-82
2023/10/03 08:53:41;;;;;;;;;;;;;;;22.19;44.65;101072.16;5400468;32;33908;-77
2023/10/03 08:56:44;;;;;;;;;;;;;;;22.60;43.56;101069.78;5407825;32;33641;-82
2023/10/03 08:59:46;;;;;;;;;;;;;;;22.95;42.95;101060.81;5408057;32;35177;-77
2023/10/03 09:02:59;;;;;;;;;;;;;;;22.64;43.86;101073.94;5398012;32;35672;-84
2023/10/03 09:06:07;;;;;;;;;;;;;;;23.15;42.56;101068.09;5407487;32;33990;-83
2023/10/03 09:09:16;;;;;;;;;;;;;;;22.45;44.21;101052.25;5412926;32;35702;-84
2023/10/03 09:12:20;;;;;;;;;;;;;;;23.37;42.28;101047.56;5397840;32;33714;-88
2023/10/03 09:15:22;;;;;;;;;;;;;;;23.10;43.06;101048.84;5416106;32;34404;-85
2023/10/03 09:18:25;;;;;;;;;;;;;;;23.47;42.29;101046.69;5414557;32;34927;-82
2023/10/03 09:21:28;;;;;;;;;;;;;;;23.12;43.22;101043.34;5409825;32;34177;-79
2023/10/03 09:24:43;;;;;;;;;;;;;;;22.79;44.34;101042.38;5413303;32;35155;-77
2023/10/03 09:27:45;;;;;;;;;;;;;;;22.92;44.43;101037.78;5400294;32;33016;-79
2023/10/03 09:30:47;;;;;;;;;;;;;;;24.14;42.10;101031.25;5414486;32;34143;-84
2023/10/03 09:33:57;;;;;;;;;;;;;;;25.16;39.87;101014.19;5408691;32;36302;-78
2023/10/03 09:37:02;;;;;;;;;;;;;;;27.61;34.94;101009.63;5410383;32;33914;-85
2023/10/03 09:40:16;;;;;;;;;;;;;;;28.30;33.71;101008.81;5400096;32;35330;-83
2023/10/03 09:43:28;;;;;;;;;;;;;;;28.36;33.31;101005.50;5413201;32;35657;-80
2023/10/03 09:46:38;;;;;;;;;;;;;;;29.09;32.48;101002.28;5426469;32;34798;-82
2023/10/03 09:50:06;;;;;;;;;;;;;;;30.25;30.21;100994.03;5372944;32;34648;-84
2023/10/03 09:53:15;;;;;;;;;;;;;;;31.08;28.84;101005.25;5386456;32;34257;-86
2023/10/03 09:56:20;;;;;;;;;;;;;;;31.08;28.26;100997.09;5381498;32;33992;-83
2023/10/03 09:59:24;;;;;;;;;;;;;;;32.97;26.01;100988.88;5376787;32;33946;-81
2023/10/03 10:02:35;;;;;;;;;;;;;;;34.32;23.79;100981.50;5378449;32;35397;-79
2023/10/03 10:06:12;;;;;;;;;;;;;;;33.25;25.26;100986.25;5380228;32;32890;-77
2023/10/03 10:09:27;;;;;;;;;;;;;;;33.96;24.45;100992.63;5380515;32;35535;-76
2023/10/03 10:12:30;;;;;;;;;;;;;;;33.26;25.37;100993.41;5385989;32;34091;-81
2023/10/03 10:15:56;;;;;;;;;;;;;;;34.95;23.13;100976.81;5382312;32;34984;-81
2023/10/03 10:18:59;;;;;;;;;;;;;;;33.62;24.48;100982.44;5385687;32;33690;-81
2023/10/03 10:22:04;;;;;;;;;;;;;;;35.67;22.07;100966.22;5376407;32;33907;-78
2023/10/03 10:25:25;;;;;;;;;;;;;;;34.47;23.45;100963.16;5388891;32;34333;-78
2023/10/03 10:28:33;;;;;;;;;;;;;;;33.45;24.55;100961.97;5424402;32;34073;-87
2023/10/03 10:31:44;;;;;;;;;;;;;;;35.58;22.10;100953.81;5417809;32;34175;-80
2023/10/03 10:34:49;;;;;;;;;;;;;;;34.52;23.21;100953.50;5416197;32;35032;-79
2023/10/03 10:37:53;;;;;;;;;;;;;;;33.90;23.88;100958.78;5430280;32;33994;-82
2023/10/03 10:41:17;;;;;;;;;;;;;;;33.15;24.62;100952.00;5400321;32;33975;-78
2023/10/03 10:44:21;;;;;;;;;;;;;;;32.02;26.11;100943.41;5420099;32;34417;-80
2023/10/03 10:47:24;;;;;;;;;;;;;;;30.72;27.93;100946.09;5418015;32;33916;-81
2023/10/03 10:50:27;;;;;;;;;;;;;;;28.66;31.66;100954.59;5410324;32;34204;-80
2023/10/03 10:53:38;;;;;;;;;;;;;;;28.28;31.99;100943.28;5417906;32;32918;-78
2023/10/03 10:56:40;;;;;;;;;;;;;;;27.74;32.95;100943.44;5419678;32;34466;-83
2023/10/03 10:59:46;;;;;;;;;;;;;;;27.78;32.85;100942.13;5408745;32;34216;-83
2023/10/03 11:02:51;;;;;;;;;;;;;;;28.21;32.19;100939.50;5419464;32;35650;-79
2023/10/03 11:05:59;;;;;;;;;;;;;;;26.99;34.15;100934.81;5420002;32;34162;-81
2023/10/03 11:09:01;;;;;;;;;;;;;;;27.51;33.19;100926.88;5427480;32;36074;-78
2023/10/03 11:12:07;;;;;;;;;;;;;;;28.15;32.15;100927.50;5424153;32;34004;-78
2023/10/03 11:15:13;;;;;;;;;;;;;;;28.12;32.49;100925.09;5429409;32;35979;-85
2023/10/03 11:18:18;;;;;;;;;;;;;;;27.72;32.97;100920.31;5413025;32;34011;-82
2023/10/03 11:21:22;;;;;;;;;;;;;;;27.62;33.28;100914.09;5422558;32;34447;-77
2023/10/03 11:24:25;;;;;;;;;;;;;;;26.95;34.54;100906.44;5425102;32;34863;-82
2023/10/03 11:27:30;;;;;;;;;;;;;;;27.77;33.06;100902.63;5427126;32;32858;-81
2023/10/03 11:30:33;;;;;;;;;;;;;;;27.96;32.81;100900.72;5421552;32;33776;-80
2023/10/03 11:33:45;;;;;;;;;;;;;;;26.93;34.59;100904.91;5426243;32;35054;-82
2023/10/03 11:36:51;;;;;;;;;;;;;;;27.61;33.35;100905.16;5412055;32;33242;-79
2023/10/03 11:40:11;;;;;;;;;;;;;;;27.59;33.31;100907.19;5411312;32;34320;-79
2023/10/03 11:43:19;;;;;;;;;;;;;;;28.06;32.65;100894.16;5427062;32;34258;-80
2023/10/03 11:46:38;;;;;;;;;;;;;;;27.91;32.42;100890.38;5422812;32;32801;-81
2023/10/03 11:49:40;;;;;;;;;;;;;;;27.89;32.55;100888.84;5425651;32;35415;-79
2023/10/03 11:52:45;;;;;;;;;;;;;;;27.92;32.64;100880.41;5423832;32;35107;-79
2023/10/03 11:55:52;;;;;;;;;;;;;;;27.50;33.18;100876.59;5419596;32;33994;-79
2023/10/03 11:59:01;;;;;;;;;;;;;;;27.91;32.64;100868.78;5411692;32;35590;-76
2023/10/03 12:02:07;;;;;;;;;;;;;;;28.38;31.91;100870.19;5413943;32;34206;-77
2023/10/03 12:05:27;;;;;;;;;;;;;;;28.32;31.94;100859.00;5409105;32;33643;-78
2023/10/03 12:08:32;;;;;;;;;;;;;;;28.04;32.40;100852.97;5427566;32;34279;-76
2023/10/03 12:11:41;;;;;;;;;;;;;;;27.90;32.50;100842.78;5423114;32;36267;-77
2023/10/03 12:14:49;;;;;;;;;;;;;;;27.33;33.63;100855.88;5410636;32;34333;-77
2023/10/03 12:17:52;;;;;;;;;;;;;;;28.55;31.32;100851.16;5411148;32;36499;-84
2023/10/03 12:20:55;;;;;;;;;;;;;;;27.50;32.88;100841.50;5407958;32;34113;-78
2023/10/03 12:24:02;;;;;;;;;;;;;;;26.83;34.53;100839.41;5426647;32;35930;-80
2023/10/03 12:27:05;;;;;;;;;;;;;;;27.46;33.55;100836.56;5424431;32;33933;-85
2023/10/03 12:30:12;;;;;;;;;;;;;;;27.54;32.84;100839.31;5422093;32;34451;-77
2023/10/03 12:33:16;;;;;;;;;;;;;;;27.45;33.49;100829.47;5411203;32;34118;-81
2023/10/03 12:36:19;;;;;;;;;;;;;;;28.17;32.08;100830.06;5415611;32;34020;-85
2023/10/03 12:39:24;;;;;;;;;;;;;;;28.26;31.61;100831.75;5392534;32;35432;-79
2023/10/03 12:42:28;;;;;;;;;;;;;;;27.78;32.59;100817.03;5423548;32;34140;-80
2023/10/03 12:45:31;;;;;;;;;;;;;;;27.55;33.16;100822.09;5429292;32;34456;-86
2023/10/03 12:48:33;;;;;;;;;;;;;;;27.50;33.26;100819.03;5430533;32;34566;-81
2023/10/03 12:51:36;;;;;;;;;;;;;;;28.22;31.95;100809.63;5409204;32;34898;-83
2023/10/03 12:54:42;;;;;;;;;;;;;;;27.85;32.83;100820.78;5422666;32;34589;-83
2023/10/03 12:57:48;;;;;;;;;;;;;;;29.03;30.42;100803.53;5416372;32;34946;-85
2023/10/03 13:00:51;;;;;;;;;;;;;;;29.33;30.32;100799.28;5422058;32;36482;-82
2023/10/03 13:03:53;;;;;;;;;;;;;;;30.42;28.55;100789.59;5412819;32;33110;-79
2023/10/03 13:06:58;;;;;;;;;;;;;;;30.52;28.41;100789.34;5419033;32;34231;-86
2023/10/03 13:10:04;;;;;;;;;;;;;;;30.30;28.39;100782.91;5412057;32;35250;-82
2023/10/03 13:13:09;;;;;;;;;;;;;;;29.78;29.36;100786.16;5416986;32;34085;-87
2023/10/03 13:16:14;;;;;;;;;;;;;;;30.85;28.12;100774.56;5427895;32;34292;-83
2023/10/03 13:19:17;;;;;;;;;;;;;;;30.74;28.16;100780.41;5423919;32;33827;-76
2023/10/03 13:22:26;;;;;;;;;;;;;;;32.49;25.49;100768.09;5413412;32;34638;-81
2023/10/03 13:25:29;;;;;;;;;;;;;;;35.64;21.68;100762.47;5423649;32;35459;-87
2023/10/03 13:28:34;;;;;;;;;;;;;;;34.43;23.16;100746.31;5429179;32;34314;-83
2023/10/03 13:31:37;;;;;;;;;;;;;;;35.28;21.74;100744.63;5427364;32;34779;-78
2023/10/03 13:34:40;;;;;;;;;;;;;;;33.21;24.33;100750.72;5410573;32;34248;-81
2023/10/03 13:37:45;;;;;;;;;;;;;;;35.05;22.27;100743.44;5429042;32;34131;-82
2023/10/03 13:40:50;;;;;;;;;;;;;;;33.66;23.33;100743.91;5428864;32;32981;-77
2023/10/03 13:43:57;;;;;;;;;;;;;;;31.32;26.60;100732.72;5412046;32;34060;-88
2023/10/03 13:47:03;;;;;;;;;;;;;;;30.08;28.38;100736.59;5426593;32;37209;-88
2023/10/03 13:50:08;;;;;;;;;;;;;;;29.28;29.76;100735.84;5427097;32;33688;-90
2023/10/03 13:53:13;;;;;;;;;;;;;;;28.42;31.18;100742.66;5417835;32;34193;-82
2023/10/03 13:56:15;;;;;;;;;;;;;;;28.44;31.31;100745.16;5425618;32;35088;-77
2023/10/03 13:59:18;;;;;;;;;;;;;;;28.15;31.71;100745.59;5422558;32;34121;-79
2023/10/03 14:02:22;;;;;;;;;;;;;;;27.16;33.77;100732.63;5423850;32;34103;-80
2023/10/03 14:05:25;;;;;;;;;;;;;;;27.74;32.77;100735.50;5422046;32;34628;-80
2023/10/03 14:08:34;;;;;;;;;;;;;;;27.54;33.10;100734.88;5407613;32;34300;-83
2023/10/03 14:11:37;;;;;;;;;;;;;;;27.52;32.93;100733.34;5425772;32;35482;-78
2023/10/03 14:14:39;;;;;;;;;;;;;;;26.83;34.24;100729.69;5423720;32;35942;-83
2023/10/03 14:17:42;;;;;;;;;;;;;;;26.99;33.99;100731.66;5423578;32;34056;-80
2023/10/03 14:20:47;;;;;;;;;;;;;;;26.65;34.61;100742.34;5427342;32;35871;-88
2023/10/03 14:23:53;;;;;;;;;;;;;;;27.33;33.50;100731.75;5411063;32;34636;-81
2023/10/03 14:26:55;;;;;;;;;;;;;;;27.30;33.51;100726.62;5422385;32;35899;-82
2023/10/03 14:29:58;;;;;;;;;;;;;;;27.07;34.00;100720.12;5408236;32;33819;-81
2023/10/03 14:33:00;;;;;;;;;;;;;;;27.38;33.37;100724.00;5431149;32;34187;-87
2023/10/03 14:36:03;;;;;;;;;;;;;;;26.83;34.19;100726.97;5425875;32;34830;-80
2023/10/03 14:39:07;;;;;;;;;;;;;;;26.39;35.11;100715.28;5424030;32;35037;-81
2023/10/03 14:42:11;;;;;;;;;;;;;;;26.44;35.07;100710.31;5410034;32;35363;-79
2023/10/03 14:45:13;;;;;;;;;;;;;;;27.27;33.58;100708.09;5419138;32;34216;-85
2023/10/03 14:48:17;;;;;;;;;;;;;;;27.25;33.47;100710.94;5420050;32;34740;-78
2023/10/03 14:51:20;;;;;;;;;;;;;;;27.13;33.68;100704.13;5416784;32;35412;-80
2023/10/03 14:54:22;;;;;;;;;;;;;;;27.24;33.54;100700.28;5407667;32;35499;-78
2023/10/03 14:57:26;;;;;;;;;;;;;;;26.85;34.38;100706.09;5404505;32;34972;-83
2023/10/03 15:00:28;;;;;;;;;;;;;;;27.24;33.58;100706.56;5413991;32;33213;-79
2023/10/03 15:03:33;;;;;;;;;;;;;;;27.22;33.67;100703.16;5423919;32;35413;-81
2023/10/03 15:06:37;;;;;;;;;;;;;;;26.80;34.60;100716.53;5417881;32;34512;-81
2023/10/03 15:09:40;;;;;;;;;;;;;;;26.57;35.16;100707.22;5416882;32;35060;-80
2023/10/03 15:12:42;;;;;;;;;;;;;;;27.15;34.21;100706.66;5421302;32;34621;-81
2023/10/03 15:15:44;;;;;;;;;;;;;;;27.14;34.32;100702.28;5424553;32;34799;-83
2023/10/03 15:18:46;;;;;;;;;;;;;;;27.14;34.26;100710.38;5410676;32;35028;-80
2023/10/03 15:21:49;;;;;;;;;;;;;;;26.81;34.87;100699.34;5422404;32;34350;-80
2023/10/03 15:24:51;;;;;;;;;;;;;;;27.40;33.72;100695.00;5397869;32;34800;-84
2023/10/03 15:27:54;;;;;;;;;;;;;;;26.99;34.31;100696.59;5396950;32;34981;-83
2023/10/03 15:30:57;;;;;;;;;;;;;;;26.78;34.89;100694.25;5422225;32;34906;-83
2023/10/03 15:34:03;;;;;;;;;;;;;;;26.62;35.44;100689.59;5433921;32;34621;-84
2023/10/03 15:37:07;;;;;;;;;;;;;;;26.40;35.85;100685.50;5415486;32;34317;-83
2023/10/03 15:40:10;;;;;;;;;;;;;;;27.09;34.71;100680.31;5429190;32;34711;-82
2023/10/03 15:43:15;;;;;;;;;;;;;;;27.11;34.45;100681.00;5424810;32;34866;-84
2023/10/03 15:46:17;;;;;;;;;;;;;;;26.77;35.04;100673.69;5411933;32;34905;-84
2023/10/03 15:49:20;;;;;;;;;;;;;;;26.69;35.33;100684.41;5405127;32;34807;-85
2023/10/03 15:52:22;;;;;;;;;;;;;;;26.73;35.19;100686.66;5408640;32;35260;-82